Time;durP1;ratioP1;P1;durP2;ratioP2;P2;SDS_P1;SDS_P2;PMS_P1;PMS_P2;Temp;Humidity;BMP_temperature;BMP_pressure;BME280_temperature;BME280_humidity;BME280_pressure;Samples;Min_cycle;Max_cycle;Signal;HPM_P1;HPM_P2
2023/09/01 00:00:43;;;;;;;7.50;6.20;;;15.90;99.90;;;;;;5012364;28;20203;-63
2023/09/01 00:03:11;;;;;;;8.93;6.00;;;15.90;99.90;;;;;;5012522;28;20228;-63
2023/09/01 00:05:39;;;;;;;6.88;5.68;;;16.00;99.90;;;;;;5012601;28;20217;-63
2023/09/01 00:08:08;;;;;;;8.07;6.57;;;16.00;99.90;;;;;;5012426;28;20281;-64
2023/09/01 00:10:39;;;;;;;10.45;5.75;;;16.00;99.90;;;;;;5012603;28;20195;-65
2023/09/01 00:13:07;;;;;;;9.48;6.47;;;16.00;99.90;;;;;;5011885;28;20780;-64
2023/09/01 00:15:35;;;;;;;9.25;6.60;;;16.00;99.90;;;;;;5011969;28;20204;-63
2023/09/01 00:18:05;;;;;;;9.63;7.00;;;16.00;99.90;;;;;;5012046;28;20750;-64
2023/09/01 00:20:34;;;;;;;9.60;6.85;;;16.00;99.90;;;;;;5012422;28;20624;-65
2023/09/01 00:23:03;;;;;;;9.23;6.43;;;16.00;99.90;;;;;;5011286;28;20222;-62
2023/09/01 00:25:31;;;;;;;9.63;6.75;;;16.00;99.90;;;;;;5008937;28;20199;-62
2023/09/01 00:27:59;;;;;;;8.02;6.53;;;16.00;99.90;;;;;;5014558;28;20208;-64
2023/09/01 00:30:28;;;;;;;9.82;7.03;;;16.00;99.90;;;;;;5017112;28;20794;-62
2023/09/01 00:32:56;;;;;;;8.70;6.53;;;16.00;99.90;;;;;;5009456;28;20230;-62
2023/09/01 00:35:25;;;;;;;8.13;5.63;;;16.00;99.90;;;;;;5009589;28;20231;-63
2023/09/01 00:37:53;;;;;;;5.97;5.28;;;15.90;99.90;;;;;;5010693;28;20215;-62
2023/09/01 00:40:21;;;;;;;7.82;5.55;;;15.90;99.90;;;;;;5015121;28;20657;-63
2023/09/01 00:42:49;;;;;;;9.32;5.18;;;15.90;99.90;;;;;;5009344;28;20235;-65
2023/09/01 00:45:17;;;;;;;6.57;5.07;;;15.90;99.90;;;;;;5014064;28;20302;-65
2023/09/01 00:47:45;;;;;;;5.93;4.20;;;15.80;99.90;;;;;;5017347;28;20207;-65
2023/09/01 00:50:13;;;;;;;6.40;5.00;;;15.80;99.90;;;;;;5015130;28;20226;-65
2023/09/01 00:52:42;;;;;;;5.25;4.30;;;15.80;99.90;;;;;;5014495;28;20210;-63
2023/09/01 00:55:10;;;;;;;5.20;4.70;;;15.80;99.90;;;;;;5014236;28;20231;-63
2023/09/01 00:57:38;;;;;;;4.85;3.90;;;15.80;99.90;;;;;;5011014;28;20230;-64
2023/09/01 01:00:07;;;;;;;10.15;4.80;;;15.80;99.90;;;;;;5013060;28;20691;-64
2023/09/01 01:02:35;;;;;;;5.97;3.67;;;15.90;99.90;;;;;;5012757;28;20260;-61
2023/09/01 01:05:14;;;;;;;4.78;3.53;;;15.80;99.90;;;;;;5011775;28;20226;-61
2023/09/01 01:07:47;;;;;;;4.60;4.20;;;15.80;99.90;;;;;;5010389;28;20260;-61
2023/09/01 01:10:18;;;;;;;5.88;3.63;;;15.80;99.90;;;;;;5012631;28;20243;-62
2023/09/01 01:12:49;;;;;;;6.30;4.03;;;15.80;99.90;;;;;;5014675;28;20235;-61
2023/09/01 01:15:18;;;;;;;4.07;3.88;;;15.80;99.90;;;;;;5012305;28;20227;-61
2023/09/01 01:17:46;;;;;;;5.97;4.32;;;15.70;99.90;;;;;;5010124;28;20347;-61
2023/09/01 01:20:28;;;;;;;5.32;3.83;;;15.70;99.90;;;;;;5013111;28;20207;-60
2023/09/01 01:23:16;;;;;;;4.80;3.63;;;15.70;99.90;;;;;;5012740;28;20306;-60
2023/09/01 01:25:48;;;;;;;5.97;3.75;;;15.70;99.90;;;;;;5011344;28;20558;-61
2023/09/01 01:28:16;;;;;;;3.83;3.50;;;15.70;99.90;;;;;;5013277;28;20286;-61
2023/09/01 01:30:46;;;;;;;3.67;3.38;;;15.70;99.90;;;;;;5013411;28;20253;-61
2023/09/01 01:33:26;;;;;;;6.38;3.95;;;15.70;99.90;;;;;;5011574;28;20254;-59
2023/09/01 01:36:01;;;;;;;4.10;3.80;;;15.70;99.90;;;;;;5011771;28;20294;-60
2023/09/01 01:38:30;;;;;;;4.53;3.08;;;15.70;99.90;;;;;;5014448;28;20223;-59
2023/09/01 01:41:03;;;;;;;4.25;3.47;;;15.70;99.90;;;;;;5012728;28;20211;-59
2023/09/01 01:43:31;;;;;;;3.53;3.33;;;15.60;99.90;;;;;;5011168;28;20227;-59
2023/09/01 01:45:59;;;;;;;4.00;3.60;;;15.60;99.90;;;;;;5012681;28;20648;-62
2023/09/01 01:48:27;;;;;;;5.20;3.88;;;15.60;99.90;;;;;;5014033;28;20203;-62
2023/09/01 01:50:55;;;;;;;3.85;3.35;;;15.60;99.90;;;;;;5014107;28;20207;-62
2023/09/01 01:53:23;;;;;;;5.07;3.58;;;15.60;99.90;;;;;;5014328;28;20227;-61
2023/09/01 01:55:53;;;;;;;4.15;3.55;;;15.60;99.90;;;;;;5013587;28;20726;-59
2023/09/01 01:58:20;;;;;;;5.72;4.15;;;15.60;99.90;;;;;;5013456;28;20282;-62
2023/09/01 02:00:49;;;;;;;6.40;3.97;;;15.60;99.90;;;;;;5023404;28;20238;-63
2023/09/01 02:03:17;;;;;;;3.95;3.60;;;15.60;99.90;;;;;;5016683;28;20219;-63
2023/09/01 02:05:45;;;;;;;3.80;3.50;;;15.60;99.90;;;;;;5014551;28;20230;-62
2023/09/01 02:08:13;;;;;;;4.35;3.42;;;15.70;99.90;;;;;;5015129;28;20564;-62
2023/09/01 02:10:41;;;;;;;4.65;3.45;;;15.70;99.90;;;;;;5022834;28;20227;-63
2023/09/01 02:13:10;;;;;;;4.15;3.40;;;15.70;99.90;;;;;;5018851;28;20320;-63
2023/09/01 02:15:38;;;;;;;5.90;3.90;;;15.70;99.90;;;;;;5020601;28;20400;-62
2023/09/01 02:18:08;;;;;;;4.25;3.95;;;15.70;99.90;;;;;;5020800;28;20203;-63
2023/09/01 02:20:37;;;;;;;6.03;4.13;;;15.60;99.90;;;;;;5019180;28;20207;-60
2023/09/01 02:23:05;;;;;;;4.47;4.07;;;15.70;99.90;;;;;;5016112;28;20277;-61
2023/09/01 02:25:37;;;;;;;5.68;3.90;;;15.70;99.90;;;;;;5019089;28;20309;-61
2023/09/01 02:28:05;;;;;;;5.82;3.72;;;15.70;99.90;;;;;;5023951;28;20199;-62
2023/09/01 02:30:34;;;;;;;4.65;3.72;;;15.70;99.90;;;;;;5014354;28;20630;-61
2023/09/01 02:33:02;;;;;;;4.30;3.58;;;15.70;99.90;;;;;;5014063;28;20266;-60
2023/09/01 02:35:30;;;;;;;6.18;3.58;;;15.70;99.90;;;;;;5014257;28;20282;-59
2023/09/01 02:37:59;;;;;;;4.63;4.20;;;15.70;99.90;;;;;;5014527;28;20279;-59
2023/09/01 02:40:27;;;;;;;5.43;3.67;;;15.70;99.90;;;;;;5014461;28;20204;-60
2023/09/01 02:42:55;;;;;;;4.20;3.80;;;15.70;99.90;;;;;;5013928;28;20717;-62
2023/09/01 02:45:23;;;;;;;3.92;3.50;;;15.70;99.90;;;;;;5013689;28;20302;-62
2023/09/01 02:47:52;;;;;;;4.40;3.55;;;15.70;99.90;;;;;;4998264;28;21023;-61
2023/09/01 02:50:20;;;;;;;4.45;4.05;;;15.70;99.90;;;;;;5014216;28;20205;-62
2023/09/01 02:52:48;;;;;;;5.30;3.72;;;15.70;99.90;;;;;;5013840;28;20238;-62
2023/09/01 02:55:17;;;;;;;6.80;3.35;;;15.70;99.90;;;;;;5011717;28;20315;-62
2023/09/01 02:57:45;;;;;;;3.47;2.85;;;15.70;99.90;;;;;;5013795;28;20690;-63
2023/09/01 03:00:21;;;;;;;2.88;2.67;;;15.70;99.90;;;;;;5014999;28;20262;-63
2023/09/01 03:02:50;;;;;;;3.38;3.17;;;15.70;99.90;;;;;;5014879;28;20299;-63
2023/09/01 03:05:20;;;;;;;4.07;3.80;;;15.70;99.90;;;;;;5013846;28;20219;-61
2023/09/01 03:07:47;;;;;;;3.22;3.10;;;15.70;99.90;;;;;;5014432;28;20208;-60
2023/09/01 03:10:16;;;;;;;3.50;3.30;;;15.70;99.90;;;;;;5014942;28;20290;-59
2023/09/01 03:12:44;;;;;;;3.60;3.30;;;15.70;99.90;;;;;;5013234;28;20246;-60
2023/09/01 03:15:12;;;;;;;4.00;3.70;;;15.70;99.90;;;;;;5014013;28;20259;-60
2023/09/01 03:17:40;;;;;;;3.58;3.28;;;15.70;99.90;;;;;;5013795;28;20682;-62
2023/09/01 03:20:10;;;;;;;3.60;3.40;;;15.70;99.90;;;;;;5016537;28;20611;-60
2023/09/01 03:22:39;;;;;;;3.90;3.60;;;15.70;99.90;;;;;;5013948;28;20202;-60
2023/09/01 03:25:09;;;;;;;3.47;3.17;;;15.70;99.90;;;;;;5015425;28;20221;-60
2023/09/01 03:27:38;;;;;;;3.42;3.22;;;15.70;99.90;;;;;;5015280;28;20298;-61
2023/09/01 03:30:07;;;;;;;3.70;3.40;;;15.70;99.90;;;;;;5016092;28;20299;-61
2023/09/01 03:32:35;;;;;;;3.92;3.53;;;15.60;99.90;;;;;;5012214;28;20330;-61
2023/09/01 03:35:03;;;;;;;4.05;3.75;;;15.70;99.90;;;;;;5015752;28;20262;-61
2023/09/01 03:37:31;;;;;;;4.00;3.40;;;15.70;99.90;;;;;;5015770;28;20282;-61
2023/09/01 03:40:00;;;;;;;3.45;3.25;;;15.70;99.90;;;;;;5011228;28;20231;-61
2023/09/01 03:42:28;;;;;;;3.47;3.17;;;15.70;99.90;;;;;;5009585;28;20269;-61
2023/09/01 03:44:56;;;;;;;3.20;3.10;;;15.80;99.90;;;;;;5012952;28;20206;-62
2023/09/01 03:47:23;;;;;;;3.60;3.40;;;15.80;99.90;;;;;;5017351;28;20261;-61
2023/09/01 03:49:51;;;;;;;3.60;3.40;;;15.70;99.90;;;;;;5010770;28;20546;-61
2023/09/01 03:52:19;;;;;;;3.05;2.80;;;15.70;99.90;;;;;;5014349;28;20253;-61
2023/09/01 03:54:47;;;;;;;3.63;3.42;;;15.80;99.90;;;;;;5011656;28;20227;-61
2023/09/01 03:57:16;;;;;;;3.72;3.53;;;15.70;99.90;;;;;;5012486;28;20214;-61
2023/09/01 03:59:44;;;;;;;3.88;2.97;;;15.80;99.90;;;;;;5012889;28;20282;-61
2023/09/01 04:02:12;;;;;;;2.97;2.78;;;15.80;99.90;;;;;;5012349;28;20286;-61
2023/09/01 04:04:40;;;;;;;3.38;3.17;;;15.80;99.90;;;;;;5012174;28;20634;-61
2023/09/01 04:07:09;;;;;;;4.13;3.83;;;15.80;99.90;;;;;;5012663;28;20580;-62
2023/09/01 04:09:37;;;;;;;4.15;3.80;;;15.80;99.90;;;;;;5012626;28;20214;-62
2023/09/01 04:12:06;;;;;;;3.88;3.67;;;15.80;99.90;;;;;;5012171;28;20230;-62
2023/09/01 04:14:36;;;;;;;4.35;3.90;;;15.80;99.90;;;;;;5012151;28;20254;-62
2023/09/01 04:17:04;;;;;;;4.32;4.03;;;15.80;99.90;;;;;;5012328;28;20258;-62
2023/09/01 04:19:32;;;;;;;4.75;4.45;;;15.80;99.90;;;;;;5011033;28;20213;-61
2023/09/01 04:22:00;;;;;;;5.07;4.65;;;15.80;99.90;;;;;;5009605;28;20246;-62
2023/09/01 04:24:27;;;;;;;4.65;4.35;;;15.80;99.90;;;;;;5010294;28;20313;-62
2023/09/01 04:26:55;;;;;;;4.93;4.63;;;15.80;99.90;;;;;;5006128;28;20199;-61
2023/09/01 04:29:23;;;;;;;5.43;4.90;;;15.80;99.90;;;;;;5009612;28;20765;-62
2023/09/01 04:31:52;;;;;;;5.75;5.35;;;15.80;99.90;;;;;;5010834;28;20230;-61
2023/09/01 04:34:20;;;;;;;6.35;5.85;;;15.80;99.90;;;;;;5052289;23;20295;-77
2023/09/01 04:36:50;;;;;;;6.57;6.07;;;15.80;99.90;;;;;;5044073;28;20308;-77
2023/09/01 04:39:17;;;;;;;6.40;5.97;;;15.90;99.90;;;;;;5048127;28;20208;-74
2023/09/01 04:41:45;;;;;;;7.30;6.60;;;15.80;99.90;;;;;;5043576;28;20238;-75
2023/09/01 04:44:14;;;;;;;7.70;6.50;;;15.80;99.90;;;;;;5045168;28;20222;-74
2023/09/01 04:46:42;;;;;;;7.88;7.13;;;15.80;99.90;;;;;;5049020;28;20236;-76
2023/09/01 04:49:11;;;;;;;7.95;7.15;;;15.80;99.90;;;;;;5047504;28;20247;-76
2023/09/01 04:51:39;;;;;;;7.10;6.55;;;15.80;99.90;;;;;;5048427;28;20205;-75
2023/09/01 04:54:07;;;;;;;10.52;9.45;;;15.80;99.90;;;;;;5049308;28;20694;-75
2023/09/01 04:56:35;;;;;;;10.00;9.10;;;15.80;99.90;;;;;;5044775;28;20222;-76
2023/09/01 04:59:03;;;;;;;11.10;10.00;;;15.80;99.90;;;;;;5049253;28;20744;-75
2023/09/01 05:01:31;;;;;;;15.73;11.35;;;15.80;99.90;;;;;;5049009;28;20740;-76
2023/09/01 05:03:59;;;;;;;12.02;10.65;;;15.80;99.90;;;;;;5048381;28;20312;-76
2023/09/01 05:06:28;;;;;;;12.30;11.00;;;15.80;99.90;;;;;;5044857;28;20198;-75
2023/09/01 05:08:56;;;;;;;14.75;12.20;;;15.80;99.90;;;;;;5049289;28;20296;-76
2023/09/01 05:11:24;;;;;;;13.38;12.07;;;15.80;99.90;;;;;;5048123;28;20272;-76
2023/09/01 05:13:52;;;;;;;16.13;13.40;;;15.90;99.90;;;;;;5047527;28;20264;-75
2023/09/01 05:16:20;;;;;;;16.00;13.15;;;15.90;99.90;;;;;;5046872;28;20229;-75
2023/09/01 05:18:48;;;;;;;15.25;13.70;;;15.90;99.90;;;;;;5048061;28;20216;-75
2023/09/01 05:21:16;;;;;;;17.90;14.95;;;16.00;99.90;;;;;;5047812;28;20296;-77
2023/09/01 05:23:45;;;;;;;16.58;14.98;;;16.00;99.90;;;;;;5042198;28;20355;-75
2023/09/01 05:26:13;;;;;;;19.65;15.63;;;16.00;99.90;;;;;;5046012;28;20205;-77
2023/09/01 05:28:41;;;;;;;20.23;13.35;;;16.00;99.90;;;;;;5047777;28;20209;-66
2023/09/01 05:31:09;;;;;;;12.93;9.30;;;16.10;99.90;;;;;;5050001;28;20209;-68
2023/09/01 05:33:37;;;;;;;19.08;13.10;;;16.30;99.90;;;;;;5050681;28;20269;-67
2023/09/01 05:36:05;;;;;;;14.18;11.38;;;16.50;99.90;;;;;;5054257;28;20698;-67
2023/09/01 05:38:33;;;;;;;13.70;12.27;;;16.60;99.90;;;;;;5054425;28;20229;-67
2023/09/01 05:41:03;;;;;;;18.35;15.63;;;16.70;99.90;;;;;;5053243;28;20209;-68
2023/09/01 05:43:31;;;;;;;16.73;13.57;;;16.70;99.90;;;;;;5053965;28;20256;-66
2023/09/01 05:45:59;;;;;;;15.55;13.75;;;16.70;99.90;;;;;;5051796;28;20316;-67
2023/09/01 05:48:27;;;;;;;20.17;16.58;;;16.70;99.90;;;;;;5053448;28;20289;-66
2023/09/01 05:50:55;;;;;;;19.42;14.90;;;16.60;99.90;;;;;;5052395;28;20208;-67
2023/09/01 05:53:23;;;;;;;18.17;14.07;;;16.60;99.90;;;;;;5054265;28;20279;-67
2023/09/01 05:55:51;;;;;;;16.15;13.95;;;16.60;99.90;;;;;;5053738;28;20794;-67
2023/09/01 05:58:20;;;;;;;16.98;15.18;;;16.70;99.90;;;;;;5053724;28;20229;-67
2023/09/01 06:00:48;;;;;;;16.17;14.10;;;16.70;99.90;;;;;;5053089;28;20293;-67
2023/09/01 06:03:16;;;;;;;18.85;15.38;;;16.70;99.90;;;;;;5051261;28;20309;-73
2023/09/01 06:05:44;;;;;;;17.10;15.30;;;16.70;99.90;;;;;;5046707;28;20220;-73
2023/09/01 06:08:12;;;;;;;21.00;17.45;;;16.70;99.90;;;;;;5050327;28;20243;-73
2023/09/01 06:10:40;;;;;;;17.85;16.08;;;16.70;99.90;;;;;;5053449;28;20202;-73
2023/09/01 06:13:08;;;;;;;22.60;16.85;;;16.60;99.90;;;;;;5053846;28;20675;-73
2023/09/01 06:15:37;;;;;;;18.70;16.70;;;16.50;99.90;;;;;;5053992;28;20220;-73
2023/09/01 06:18:05;;;;;;;17.77;15.13;;;16.50;99.90;;;;;;5053614;28;20222;-73
2023/09/01 06:20:33;;;;;;;17.75;15.88;;;16.50;99.90;;;;;;5054266;28;20198;-73
2023/09/01 06:23:01;;;;;;;19.67;15.75;;;16.40;99.90;;;;;;5052751;28;20663;-74
2023/09/01 06:25:29;;;;;;;15.07;13.63;;;16.50;99.90;;;;;;5054131;28;20292;-73
2023/09/01 06:27:57;;;;;;;15.82;14.23;;;16.50;99.90;;;;;;5053910;28;20670;-73
2023/09/01 06:30:25;;;;;;;12.80;11.68;;;16.50;99.90;;;;;;5053955;28;20198;-73
2023/09/01 06:32:54;;;;;;;13.30;12.10;;;16.50;99.90;;;;;;5048481;28;20279;-73
2023/09/01 06:35:22;;;;;;;15.45;11.70;;;16.50;99.90;;;;;;5050168;28;20282;-73
2023/09/01 06:37:50;;;;;;;12.80;11.18;;;16.50;99.90;;;;;;5047058;28;20218;-73
2023/09/01 06:40:18;;;;;;;10.43;9.55;;;16.60;99.90;;;;;;5053711;28;20324;-73
2023/09/01 06:42:46;;;;;;;14.02;11.57;;;16.60;99.90;;;;;;5053590;28;20256;-73
2023/09/01 06:45:14;;;;;;;12.35;11.15;;;16.60;99.90;;;;;;5052263;28;20300;-73
2023/09/01 06:47:43;;;;;;;11.82;10.60;;;16.70;99.90;;;;;;5045007;28;20221;-73
2023/09/01 06:50:12;;;;;;;11.75;10.55;;;16.80;99.90;;;;;;5046671;28;20352;-73
2023/09/01 06:52:40;;;;;;;10.63;9.73;;;16.80;99.90;;;;;;5052303;28;20304;-73
2023/09/01 06:55:09;;;;;;;11.48;10.20;;;16.80;99.90;;;;;;5045005;28;20645;-73
2023/09/01 06:57:36;;;;;;;10.38;9.40;;;16.80;99.90;;;;;;5049055;28;20218;-73
2023/09/01 07:00:05;;;;;;;10.63;9.63;;;16.80;99.90;;;;;;5053351;28;20237;-73
2023/09/01 07:02:33;;;;;;;11.20;9.25;;;16.80;99.90;;;;;;5052042;28;20317;-73
2023/09/01 07:05:02;;;;;;;8.60;7.97;;;16.90;99.90;;;;;;5053054;28;20293;-73
2023/09/01 07:07:31;;;;;;;10.77;8.25;;;16.90;99.90;;;;;;5046071;28;20206;-73
2023/09/01 07:09:59;;;;;;;9.25;8.35;;;17.00;99.90;;;;;;5052372;28;20289;-73
2023/09/01 07:12:27;;;;;;;9.55;8.75;;;17.00;99.90;;;;;;5050723;28;20205;-73
2023/09/01 07:14:55;;;;;;;9.30;8.50;;;17.00;99.90;;;;;;5049124;28;20343;-73
2023/09/01 07:17:23;;;;;;;9.10;8.38;;;17.00;99.90;;;;;;5046232;28;20222;-74
2023/09/01 07:19:51;;;;;;;9.20;8.50;;;17.00;99.90;;;;;;5045836;28;20290;-73
2023/09/01 07:22:18;;;;;;;9.20;8.30;;;17.00;99.90;;;;;;5052442;28;20214;-73
2023/09/01 07:24:48;;;;;;;8.55;7.75;;;16.90;99.90;;;;;;5052379;28;20296;-73
2023/09/01 07:27:15;;;;;;;8.30;7.53;;;16.90;99.90;;;;;;5060205;28;20288;-73
2023/09/01 07:29:48;;;;;;;8.15;7.45;;;16.90;99.90;;;;;;5052927;28;20632;-73
2023/09/01 07:32:16;;;;;;;8.30;7.38;;;16.90;99.90;;;;;;5052509;28;20201;-73
2023/09/01 07:34:44;;;;;;;7.25;6.57;;;16.90;99.90;;;;;;5051919;28;20621;-73
2023/09/01 07:37:12;;;;;;;9.38;7.25;;;17.00;99.90;;;;;;5052277;28;20742;-73
2023/09/01 07:39:40;;;;;;;7.35;6.75;;;17.00;99.90;;;;;;5052330;28;20205;-73
2023/09/01 07:42:09;;;;;;;8.63;7.93;;;17.00;99.90;;;;;;5052589;28;20224;-73
2023/09/01 07:44:37;;;;;;;11.45;8.20;;;17.00;99.90;;;;;;5052442;28;20281;-73
2023/09/01 07:47:05;;;;;;;8.23;7.63;;;17.00;99.90;;;;;;5055063;28;20240;-73
2023/09/01 07:49:33;;;;;;;9.95;7.90;;;17.00;99.90;;;;;;5053259;28;20267;-74
2023/09/01 07:52:01;;;;;;;9.73;8.85;;;17.10;99.90;;;;;;5053438;28;20216;-74
2023/09/01 07:54:29;;;;;;;9.63;8.77;;;17.10;99.90;;;;;;5053068;28;20253;-74
2023/09/01 07:56:56;;;;;;;11.68;9.98;;;17.10;99.90;;;;;;5052577;28;20290;-74
2023/09/01 07:59:26;;;;;;;11.38;9.82;;;17.20;99.90;;;;;;5052676;28;20234;-75
2023/09/01 08:01:54;;;;;;;13.90;10.23;;;17.10;99.90;;;;;;5052842;28;20218;-74
2023/09/01 08:04:21;;;;;;;11.40;10.20;;;17.20;99.90;;;;;;5050934;28;20279;-74
2023/09/01 08:06:49;;;;;;;14.15;11.00;;;17.20;99.90;;;;;;5051719;28;20213;-74
2023/09/01 08:09:17;;;;;;;11.73;10.60;;;17.30;99.90;;;;;;5051986;28;20190;-75
2023/09/01 08:11:45;;;;;;;12.07;10.82;;;17.30;99.90;;;;;;5052769;28;20222;-74
2023/09/01 08:14:13;;;;;;;11.70;10.50;;;17.30;99.90;;;;;;5051879;28;20667;-74
2023/09/01 08:16:42;;;;;;;12.82;10.70;;;17.30;99.90;;;;;;5052402;28;20240;-74
2023/09/01 08:19:10;;;;;;;11.70;10.52;;;17.30;99.90;;;;;;5052187;28;20264;-75
2023/09/01 08:21:38;;;;;;;14.10;11.07;;;17.30;99.90;;;;;;5051120;28;20251;-74
2023/09/01 08:24:07;;;;;;;13.82;12.05;;;17.40;99.90;;;;;;5052005;28;20214;-74
2023/09/01 08:26:35;;;;;;;13.25;10.93;;;17.40;99.90;;;;;;5051974;28;20280;-74
2023/09/01 08:29:04;;;;;;;12.50;11.30;;;17.50;99.90;;;;;;5051871;28;20805;-74
2023/09/01 08:31:32;;;;;;;14.80;11.38;;;17.50;99.90;;;;;;5052002;28;20198;-74
2023/09/01 08:34:02;;;;;;;12.52;10.57;;;17.50;99.90;;;;;;5051448;28;20611;-74
2023/09/01 08:36:30;;;;;;;14.95;11.93;;;17.60;99.90;;;;;;5051575;28;20677;-74
2023/09/01 08:38:58;;;;;;;12.25;11.02;;;17.60;99.90;;;;;;5051980;28;20290;-74
2023/09/01 08:41:25;;;;;;;18.00;11.05;;;17.70;99.90;;;;;;5051769;28;20312;-74
2023/09/01 08:43:53;;;;;;;11.60;10.50;;;17.70;99.90;;;;;;5051285;28;20213;-74
2023/09/01 08:46:22;;;;;;;16.33;10.50;;;17.80;99.90;;;;;;5051710;28;20271;-74
2023/09/01 08:48:50;;;;;;;11.15;9.75;;;17.90;99.90;;;;;;5051821;28;20284;-74
2023/09/01 08:51:19;;;;;;;11.75;9.52;;;18.00;99.90;;;;;;5051683;28;20205;-74
2023/09/01 08:53:47;;;;;;;11.38;10.20;;;18.10;99.90;;;;;;5051383;28;20312;-74
2023/09/01 08:56:15;;;;;;;10.23;9.23;;;18.30;99.90;;;;;;5051305;28;20194;-74
2023/09/01 08:58:44;;;;;;;11.07;9.60;;;18.40;99.90;;;;;;5051599;28;20317;-74
2023/09/01 09:01:13;;;;;;;10.73;9.73;;;18.60;99.90;;;;;;5044336;28;20208;-75
2023/09/01 09:03:41;;;;;;;12.57;9.15;;;18.70;99.90;;;;;;5045418;28;20218;-74
2023/09/01 09:06:13;;;;;;;10.02;9.02;;;18.70;99.90;;;;;;5044399;28;20687;-74
2023/09/01 09:08:42;;;;;;;10.45;8.48;;;18.70;99.90;;;;;;5043111;28;20293;-74
2023/09/01 09:11:12;;;;;;;11.90;9.63;;;18.70;99.90;;;;;;5046581;28;20236;-74
2023/09/01 09:13:40;;;;;;;8.82;8.02;;;18.70;99.90;;;;;;5044507;28;20608;-76
2023/09/01 09:16:12;;;;;;;10.43;9.45;;;18.70;99.90;;;;;;5046582;28;20205;-74
2023/09/01 09:18:42;;;;;;;18.25;9.68;;;18.70;99.90;;;;;;5042043;28;20300;-74
2023/09/01 09:21:26;;;;;;;12.38;9.45;;;18.80;99.90;;;;;;5051405;28;20209;-75
2023/09/01 09:23:56;;;;;;;10.73;8.13;;;18.80;99.90;;;;;;5050558;28;20253;-75
2023/09/01 09:26:42;;;;;;;11.25;7.40;;;18.90;99.90;;;;;;5047839;28;20197;-74
2023/09/01 09:29:11;;;;;;;9.65;6.20;;;18.80;99.90;;;;;;5041133;28;20222;-75
2023/09/01 09:31:40;;;;;;;7.40;6.72;;;18.90;99.90;;;;;;5042597;28;20209;-75
2023/09/01 09:34:14;;;;;;;8.40;6.50;;;18.80;99.90;;;;;;5048272;28;20228;-74
2023/09/01 09:36:42;;;;;;;6.32;5.50;;;18.80;99.90;;;;;;5042939;28;20236;-75
2023/09/01 09:39:23;;;;;;;7.68;5.35;;;18.70;99.90;;;;;;5050836;28;20225;-74
2023/09/01 09:41:50;;;;;;;5.72;4.93;;;18.70;99.90;;;;;;5050980;28;20205;-75
2023/09/01 09:44:29;;;;;;;5.70;4.18;;;18.70;99.90;;;;;;5050599;28;20601;-75
2023/09/01 09:46:57;;;;;;;9.63;4.53;;;18.70;99.90;;;;;;5050890;28;20198;-75
2023/09/01 09:49:25;;;;;;;8.20;4.60;;;18.70;99.90;;;;;;5050806;28;20202;-74
2023/09/01 09:51:54;;;;;;;4.95;4.40;;;18.80;99.90;;;;;;5050927;28;20202;-75
2023/09/01 09:54:24;;;;;;;5.65;4.43;;;18.80;99.90;;;;;;5050652;28;20217;-74
2023/09/01 09:56:52;;;;;;;10.40;4.80;;;18.90;99.90;;;;;;5049741;28;20310;-74
2023/09/01 09:59:25;;;;;;;5.47;3.80;;;19.00;99.90;;;;;;5050483;28;20766;-74
2023/09/01 10:01:53;;;;;;;4.82;3.80;;;19.00;99.90;;;;;;5035111;28;20271;-74
2023/09/01 10:04:22;;;;;;;3.95;3.65;;;19.00;99.90;;;;;;5050552;28;20225;-75
2023/09/01 10:06:50;;;;;;;3.30;3.10;;;19.00;99.90;;;;;;5050228;28;20202;-74
2023/09/01 10:09:18;;;;;;;3.40;3.20;;;19.00;99.90;;;;;;5050445;28;20229;-74
2023/09/01 10:11:47;;;;;;;9.25;3.70;;;19.10;99.90;;;;;;5050852;28;20647;-75
2023/09/01 10:14:16;;;;;;;6.05;4.38;;;19.10;99.90;;;;;;5050691;28;20587;-74
2023/09/01 10:16:44;;;;;;;3.72;3.45;;;19.10;99.90;;;;;;5050559;28;20296;-75
2023/09/01 10:19:13;;;;;;;4.50;4.10;;;19.10;99.90;;;;;;5050443;28;20275;-75
2023/09/01 10:21:42;;;;;;;5.65;3.72;;;19.20;99.90;;;;;;5052299;28;20936;-74
2023/09/01 10:24:14;;;;;;;3.63;3.30;;;19.20;99.90;;;;;;5054187;28;20239;-74
2023/09/01 10:26:43;;;;;;;5.78;3.30;;;19.20;99.90;;;;;;5054062;28;20218;-74
2023/09/01 10:29:13;;;;;;;4.63;3.30;;;19.30;99.90;;;;;;5054340;28;20209;-75
2023/09/01 10:31:45;;;;;;;6.53;3.60;;;19.40;99.90;;;;;;5054076;28;20204;-74
2023/09/01 10:34:13;;;;;;;5.93;3.50;;;19.60;99.90;;;;;;5067440;22;20245;-59
2023/09/01 10:36:42;;;;;;;3.80;2.97;;;19.70;99.90;;;;;;5065133;28;20652;-59
2023/09/01 10:39:21;;;;;;;4.68;3.05;;;19.70;99.90;;;;;;5059416;28;20263;-60
2023/09/01 10:41:54;;;;;;;3.15;2.75;;;19.90;99.90;;;;;;5037647;28;20235;-59
2023/09/01 10:44:26;;;;;;;3.25;2.75;;;19.90;99.90;;;;;;5061672;28;20217;-59
2023/09/01 10:46:54;;;;;;;3.97;2.78;;;20.00;99.90;;;;;;5060963;28;20719;-60
2023/09/01 10:49:41;;;;;;;6.45;3.28;;;20.00;99.90;;;;;;5070204;28;20193;-59
2023/09/01 10:52:12;;;;;;;3.30;2.72;;;20.10;99.90;;;;;;5039431;28;20633;-60
2023/09/01 10:54:41;;;;;;;3.25;2.47;;;20.10;99.90;;;;;;5063918;28;20213;-59
2023/09/01 10:57:11;;;;;;;2.70;2.42;;;20.10;99.90;;;;;;5058909;28;20742;-59
2023/09/01 10:59:41;;;;;;;5.00;2.78;;;20.00;99.90;;;;;;5063789;28;20257;-59
2023/09/01 11:02:19;;;;;;;4.03;2.38;;;20.00;99.90;;;;;;5066185;28;20586;-59
2023/09/01 11:04:47;;;;;;;3.83;2.85;;;19.90;99.90;;;;;;5046243;28;20283;-59
2023/09/01 11:07:15;;;;;;;5.90;3.17;;;19.80;99.90;;;;;;5053600;28;20240;-59
2023/09/01 11:09:52;;;;;;;9.73;3.00;;;19.70;99.90;;;;;;5069729;28;20204;-59
2023/09/01 11:12:26;;;;;;;4.75;3.13;;;19.60;99.90;;;;;;5061530;28;20250;-60
2023/09/01 11:14:57;;;;;;;3.20;2.90;;;19.60;99.90;;;;;;5060741;28;20291;-58
2023/09/01 11:17:38;;;;;;;4.68;3.03;;;19.50;99.90;;;;;;5069986;28;20284;-59
2023/09/01 11:20:10;;;;;;;5.13;3.45;;;19.50;99.90;;;;;;5050668;28;20692;-59
2023/09/01 11:22:38;;;;;;;3.15;2.85;;;19.40;99.90;;;;;;5052797;28;20228;-60
2023/09/01 11:25:09;;;;;;;5.82;3.00;;;19.40;99.90;;;;;;5052665;28;20275;-59
2023/09/01 11:27:37;;;;;;;7.03;3.15;;;19.40;99.90;;;;;;5052238;28;20198;-60
2023/09/01 11:30:09;;;;;;;3.78;3.20;;;19.30;99.90;;;;;;5064203;28;20221;-59
2023/09/01 11:32:36;;;;;;;6.85;3.30;;;19.30;99.90;;;;;;5062395;28;20201;-60
2023/09/01 11:35:05;;;;;;;4.10;3.13;;;19.20;99.90;;;;;;5058313;28;20279;-59
2023/09/01 11:37:40;;;;;;;3.83;3.25;;;19.20;99.90;;;;;;5053458;28;20217;-59
2023/09/01 11:40:09;;;;;;;3.22;2.97;;;19.10;99.90;;;;;;5066631;28;20221;-59
2023/09/01 11:42:38;;;;;;;2.63;2.40;;;19.20;99.90;;;;;;5062974;28;20250;-59
2023/09/01 11:45:09;;;;;;;3.10;2.90;;;19.20;99.90;;;;;;5057865;28;20225;-58
2023/09/01 11:47:37;;;;;;;4.70;3.78;;;19.20;99.90;;;;;;5069417;28;20258;-59
2023/09/01 11:50:06;;;;;;;2.05;1.60;;;19.30;99.90;;;;;;5058372;28;20228;-59
2023/09/01 11:52:52;;;;;;;1.80;1.70;;;19.30;99.90;;;;;;5062858;28;20207;-58
2023/09/01 11:55:33;;;;;;;1.33;1.33;;;19.40;99.90;;;;;;5067935;28;20288;-59
2023/09/01 11:58:02;;;;;;;1.63;1.40;;;19.60;99.90;;;;;;5037904;28;20291;-58
2023/09/01 12:00:33;;;;;;;0.95;0.95;;;20.10;99.90;;;;;;5050458;28;20229;-59
2023/09/01 12:03:03;;;;;;;2.40;0.98;;;20.50;99.90;;;;;;5065115;28;20620;-59
2023/09/01 12:05:32;;;;;;;1.75;0.85;;;20.60;99.90;;;;;;5055248;28;20212;-58
2023/09/01 12:08:01;;;;;;;0.82;0.80;;;20.60;99.90;;;;;;5067061;28;20202;-58
2023/09/01 12:10:29;;;;;;;2.05;0.60;;;20.40;99.90;;;;;;5060866;28;20234;-59
2023/09/01 12:13:08;;;;;;;0.70;0.70;;;20.30;99.90;;;;;;5058937;28;20657;-58
2023/09/01 12:15:57;;;;;;;1.95;0.82;;;20.10;99.90;;;;;;5067413;28;20208;-58
2023/09/01 12:18:35;;;;;;;1.73;0.63;;;20.10;99.90;;;;;;5060238;28;20680;-59
2023/09/01 12:21:05;;;;;;;3.33;0.80;;;20.00;99.90;;;;;;5058073;28;20224;-58
2023/09/01 12:23:33;;;;;;;1.17;0.68;;;20.10;99.90;;;;;;5068227;28;20312;-59
2023/09/01 12:26:02;;;;;;;0.75;0.75;;;20.20;99.90;;;;;;5056684;28;20201;-59
2023/09/01 12:28:31;;;;;;;5.13;1.05;;;20.20;99.90;;;;;;5062096;28;20201;-58
2023/09/01 12:31:01;;;;;;;1.35;0.82;;;20.30;99.90;;;;;;5050607;28;20200;-58
2023/09/01 12:33:29;;;;;;;2.40;1.15;;;20.40;99.90;;;;;;5051859;28;20291;-58
2023/09/01 12:35:56;;;;;;;1.25;1.00;;;20.50;99.90;;;;;;5066560;28;20259;-57
2023/09/01 12:38:24;;;;;;;1.25;1.25;;;20.60;99.90;;;;;;5058829;28;20246;-58
2023/09/01 12:40:52;;;;;;;1.42;1.30;;;20.80;99.90;;;;;;5057410;28;20227;-57
2023/09/01 12:43:20;;;;;;;1.42;1.25;;;21.00;99.90;;;;;;5065901;28;20316;-58
2023/09/01 12:45:47;;;;;;;2.55;1.85;;;21.00;99.90;;;;;;5054556;28;20277;-57
2023/09/01 12:48:17;;;;;;;2.78;1.58;;;21.00;99.90;;;;;;5064086;28;20197;-56
2023/09/01 12:50:45;;;;;;;2.45;1.60;;;21.20;99.90;;;;;;5062158;28;20196;-56